createdAt,value
2019-01-24T00:00:54.334Z,30.77
2019-01-24T00:03:22.614Z,33.70
2019-01-24T00:05:50.873Z,37.27
2019-01-24T00:08:19.168Z,36.23
2019-01-24T00:10:47.423Z,36.68
2019-01-24T00:13:15.687Z,36.48
2019-01-24T00:15:43.956Z,36.50
2019-01-24T00:18:12.296Z,35.63
2019-01-24T00:20:40.579Z,36.47
2019-01-24T00:23:08.846Z,33.00
2019-01-24T00:25:37.151Z,36.57
2019-01-24T00:28:05.411Z,35.05
2019-01-24T00:30:33.682Z,29.57
2019-01-24T00:33:01.951Z,32.73
2019-01-24T00:35:30.215Z,34.50
2019-01-24T00:37:58.487Z,29.37
2019-01-24T00:40:26.742Z,31.70
2019-01-24T00:42:55.009Z,33.97
2019-01-24T00:45:23.359Z,34.57
2019-01-24T00:47:51.663Z,30.30
2019-01-24T00:50:19.923Z,34.33
2019-01-24T00:52:48.193Z,28.80
2019-01-24T00:55:49.713Z,30.67
2019-01-24T00:58:17.993Z,29.32
2019-01-24T01:00:46.279Z,29.55
2019-01-24T01:03:14.545Z,28.12
2019-01-24T01:05:42.828Z,26.63
2019-01-24T01:08:11.096Z,30.25
2019-01-24T01:10:39.351Z,28.23
2019-01-24T01:13:07.611Z,33.13
2019-01-24T01:15:35.878Z,30.93
2019-01-24T01:21:12.277Z,28.07
2019-01-24T01:23:40.546Z,31.80
2019-01-24T01:26:08.818Z,31.10
2019-01-24T01:28:37.083Z,31.17
2019-01-24T01:31:05.433Z,25.53
2019-01-24T01:33:33.699Z,30.27
2019-01-24T01:36:01.962Z,25.93
2019-01-24T01:38:30.216Z,28.57
2019-01-24T01:40:58.488Z,29.72
2019-01-24T01:43:26.827Z,26.33
2019-01-24T01:45:55.091Z,25.50
2019-01-24T01:48:42.706Z,26.67
2019-01-24T01:51:10.954Z,27.30
2019-01-24T01:53:39.221Z,25.70
2019-01-24T01:56:07.474Z,24.92
2019-01-24T01:58:35.737Z,26.00
2019-01-24T02:04:12.069Z,27.35
2019-01-24T02:06:40.338Z,25.20
2019-01-24T02:09:42.737Z,28.37
2019-01-24T02:12:10.997Z,27.57
2019-01-24T02:14:39.264Z,25.80
2019-01-24T02:17:07.530Z,27.42
2019-01-24T02:19:35.811Z,25.40
2019-01-24T02:25:45.760Z,24.30
2019-01-24T02:28:14.027Z,23.53
2019-01-24T02:30:42.304Z,23.75
2019-01-24T02:33:10.568Z,24.70
2019-01-24T02:35:38.819Z,26.20
2019-01-24T02:38:07.085Z,28.80
2019-01-24T02:40:35.355Z,27.27
2019-01-24T02:43:03.621Z,26.20
2019-01-24T02:45:31.893Z,27.32
2019-01-24T02:48:00.154Z,26.53
2019-01-24T02:50:28.415Z,25.13
2019-01-24T02:52:56.678Z,28.00
2019-01-24T02:55:24.944Z,28.30
2019-01-24T02:57:53.216Z,26.60
2019-01-24T03:00:40.821Z,26.90
2019-01-24T03:03:09.103Z,27.10
2019-01-24T03:05:37.390Z,27.37
2019-01-24T03:08:05.643Z,26.83
2019-01-24T03:10:33.916Z,26.37
2019-01-24T03:13:02.185Z,27.80
2019-01-24T03:15:30.464Z,24.50
2019-01-24T03:17:58.730Z,27.17
2019-01-24T03:20:27.000Z,24.80
2019-01-24T03:22:55.311Z,27.00
2019-01-24T03:25:23.563Z,26.65
2019-01-24T03:27:51.835Z,26.70
2019-01-24T03:30:39.440Z,26.23
2019-01-24T03:33:07.706Z,19.95
2019-01-24T03:35:35.954Z,24.70
2019-01-24T03:38:04.215Z,25.68
2019-01-24T03:40:32.468Z,24.57
2019-01-24T03:43:00.741Z,22.90
2019-01-24T03:45:28.994Z,26.60
2019-01-24T03:47:57.283Z,26.30
2019-01-24T03:50:25.546Z,22.63
2019-01-24T03:53:33.839Z,25.17
2019-01-24T03:56:02.096Z,23.67
2019-01-24T03:58:30.365Z,26.20
2019-01-24T04:00:58.638Z,23.53
2019-01-24T04:03:26.905Z,20.57
2019-01-24T04:05:55.172Z,22.60
2019-01-24T04:08:23.441Z,24.07
2019-01-24T04:10:51.693Z,23.13
2019-01-24T04:13:19.974Z,22.00
2019-01-24T04:15:48.260Z,24.02
2019-01-24T04:18:16.522Z,20.23
2019-01-24T04:20:44.790Z,21.30
2019-01-24T04:23:13.062Z,22.23
2019-01-24T04:25:41.357Z,22.93
2019-01-24T04:28:09.646Z,20.80
2019-01-24T04:30:37.895Z,22.22
2019-01-24T04:33:06.158Z,21.42
2019-01-24T04:35:34.435Z,21.85
2019-01-24T04:38:02.725Z,21.30
2019-01-24T04:40:31.008Z,21.10
2019-01-24T04:42:59.276Z,21.37
2019-01-24T04:45:27.550Z,20.90
2019-01-24T04:47:55.915Z,22.13
2019-01-24T04:50:24.178Z,21.82
2019-01-24T04:52:52.446Z,23.30
2019-01-24T04:55:20.718Z,22.83
2019-01-24T04:58:22.332Z,25.77
2019-01-24T05:00:50.594Z,22.85
2019-01-24T05:03:18.865Z,22.20
2019-01-24T05:05:47.146Z,24.40
2019-01-24T05:08:15.408Z,21.73
2019-01-24T05:10:43.685Z,21.53
2019-01-24T05:13:11.955Z,24.23
2019-01-24T05:15:40.241Z,21.80
2019-01-24T05:18:08.515Z,23.10
2019-01-24T05:20:36.778Z,24.00
2019-01-24T05:23:05.042Z,20.55
2019-01-24T05:25:33.313Z,22.80
2019-01-24T05:28:01.570Z,19.73
2019-01-24T05:30:29.910Z,21.53
2019-01-24T05:32:58.225Z,22.20
2019-01-24T05:35:26.486Z,22.55
2019-01-24T05:37:54.761Z,23.10
2019-01-24T05:40:23.114Z,22.67
2019-01-24T05:42:51.361Z,22.30
2019-01-24T05:45:19.657Z,25.53
2019-01-24T05:47:47.984Z,23.23
2019-01-24T05:50:16.270Z,22.63
2019-01-24T05:52:44.611Z,25.17
2019-01-24T05:55:46.267Z,24.30
2019-01-24T05:58:14.538Z,23.90
2019-01-24T06:03:31.763Z,24.90
2019-01-24T06:06:00.036Z,24.37
2019-01-24T06:08:28.410Z,23.73
2019-01-24T06:10:56.692Z,26.70
2019-01-24T06:13:24.953Z,22.80
2019-01-24T06:15:53.218Z,22.90
2019-01-24T06:18:21.484Z,24.30
2019-01-24T06:20:49.769Z,25.37
2019-01-24T06:23:18.043Z,24.98
2019-01-24T06:25:46.322Z,23.60
2019-01-24T06:28:14.586Z,24.10
2019-01-24T06:30:42.851Z,25.70
2019-01-24T06:33:11.137Z,23.23
2019-01-24T06:35:39.420Z,24.60
2019-01-24T06:38:07.689Z,23.50
2019-01-24T06:40:36.013Z,24.30
2019-01-24T06:43:04.283Z,23.80
2019-01-24T06:45:32.555Z,26.77
2019-01-24T06:48:00.820Z,23.37
2019-01-24T06:50:29.085Z,24.80
2019-01-24T06:52:57.358Z,24.00
2019-01-24T06:55:59.221Z,24.43
2019-01-24T06:58:27.501Z,22.20
2019-01-24T07:00:55.842Z,25.02
2019-01-24T07:03:24.117Z,23.80
2019-01-24T07:05:55.478Z,26.83
2019-01-24T07:08:22.389Z,25.92
2019-01-24T07:10:50.671Z,25.92
2019-01-24T07:13:18.947Z,24.40
2019-01-24T07:15:47.232Z,23.45
2019-01-24T07:18:15.505Z,25.55
2019-01-24T07:20:55.989Z,24.43
2019-01-24T07:23:24.254Z,25.53
2019-01-24T07:25:52.526Z,22.80
2019-01-24T07:28:20.871Z,25.73
2019-01-24T07:30:49.137Z,24.60
2019-01-24T07:33:17.410Z,21.00
2019-01-24T07:35:45.676Z,25.80
2019-01-24T07:38:13.951Z,23.60
2019-01-24T07:40:42.216Z,22.47
2019-01-24T07:43:10.495Z,24.03
2019-01-24T07:46:18.801Z,25.80
2019-01-24T07:48:47.083Z,25.02
2019-01-24T07:51:15.350Z,22.23
2019-01-24T07:53:43.623Z,22.80
2019-01-24T07:56:11.896Z,26.20
2019-01-24T07:58:40.185Z,24.33
2019-01-24T08:01:08.458Z,25.12
2019-01-24T08:03:36.743Z,24.63
2019-01-24T08:06:08.996Z,22.10
2019-01-24T08:08:35.161Z,25.10
2019-01-24T08:11:03.416Z,24.40
2019-01-24T08:13:31.675Z,25.80
2019-01-24T08:15:59.951Z,23.25
2019-01-24T08:18:28.722Z,26.00
2019-01-24T08:20:56.989Z,26.17
2019-01-24T08:23:25.271Z,24.07
2019-01-24T08:25:53.538Z,24.75
2019-01-24T08:28:21.815Z,21.48
2019-01-24T08:30:50.083Z,23.83
2019-01-24T08:33:18.344Z,22.17
2019-01-24T08:35:46.614Z,26.77
2019-01-24T08:38:14.877Z,23.03
2019-01-24T08:40:43.162Z,25.40
2019-01-24T08:43:11.428Z,23.97
2019-01-24T08:45:39.694Z,24.70
2019-01-24T08:48:07.967Z,21.37
2019-01-24T08:50:36.238Z,22.60
2019-01-24T08:53:04.580Z,23.45
2019-01-24T08:55:52.188Z,23.98
2019-01-24T08:58:20.468Z,24.50
2019-01-24T09:00:48.731Z,26.27
2019-01-24T09:03:36.329Z,26.17
2019-01-24T09:06:38.658Z,24.63
2019-01-24T09:09:40.849Z,26.10
2019-01-24T09:12:09.133Z,24.77
2019-01-24T09:14:56.744Z,25.10
2019-01-24T09:17:25.035Z,24.20
2019-01-24T09:19:53.310Z,27.50
2019-01-24T09:22:21.576Z,28.30
2019-01-24T09:24:49.852Z,24.75
2019-01-24T09:27:18.123Z,25.60
2019-01-24T09:29:46.390Z,23.27
2019-01-24T09:32:14.649Z,26.53
2019-01-24T09:34:42.930Z,24.80
2019-01-24T09:37:11.196Z,24.97
2019-01-24T09:39:39.459Z,27.07
2019-01-24T09:42:07.728Z,25.20
2019-01-24T09:44:35.983Z,23.53
2019-01-24T09:47:04.265Z,23.03
2019-01-24T09:49:32.543Z,22.90
2019-01-24T09:52:00.797Z,24.90
2019-01-24T09:54:29.073Z,25.20
2019-01-24T09:56:57.345Z,21.35
2019-01-24T09:59:25.628Z,22.93
2019-01-24T10:01:53.904Z,26.13
2019-01-24T10:04:22.168Z,24.37
2019-01-24T10:06:50.663Z,22.63
2019-01-24T10:09:18.981Z,26.27
2019-01-24T10:11:47.248Z,23.07
2019-01-24T10:14:15.524Z,26.20
2019-01-24T10:16:43.783Z,25.50
2019-01-24T10:19:12.048Z,26.77
2019-01-24T10:21:40.321Z,26.93
2019-01-24T10:24:08.599Z,26.33
2019-01-24T10:26:36.856Z,26.70
2019-01-24T10:29:05.139Z,24.37
2019-01-24T10:31:33.476Z,25.40
2019-01-24T10:34:01.774Z,23.43
2019-01-24T10:36:30.038Z,25.90
2019-01-24T10:38:58.314Z,23.50
2019-01-24T10:41:26.591Z,28.63
2019-01-24T10:43:54.856Z,24.90
2019-01-24T10:46:23.127Z,23.10
2019-01-24T10:48:51.381Z,24.57
2019-01-24T10:51:19.644Z,24.57
2019-01-24T10:53:47.915Z,27.88
2019-01-24T10:56:16.182Z,24.60
2019-01-24T10:58:44.439Z,26.83
2019-01-24T11:01:12.740Z,23.43
2019-01-24T11:03:41.025Z,28.60
2019-01-24T11:06:09.287Z,26.43
2019-01-24T11:08:37.558Z,24.20
2019-01-24T11:11:05.825Z,26.07
2019-01-24T11:13:34.095Z,29.10
2019-01-24T11:16:21.711Z,27.60
2019-01-24T11:18:49.987Z,24.70
2019-01-24T11:21:18.255Z,28.10
2019-01-24T11:23:46.581Z,26.30
2019-01-24T11:26:14.846Z,29.90
2019-01-24T11:28:43.122Z,25.43
2019-01-24T11:31:11.415Z,27.00
2019-01-24T11:33:40.432Z,25.97
2019-01-24T11:36:08.698Z,25.10
2019-01-24T11:38:36.953Z,25.13
2019-01-24T11:41:05.228Z,25.53
2019-01-24T11:43:33.494Z,23.30
2019-01-24T11:46:01.784Z,27.42
2019-01-24T11:48:30.057Z,23.10
2019-01-24T11:50:58.329Z,25.50
2019-01-24T11:53:26.596Z,25.00
2019-01-24T11:55:54.871Z,24.27
2019-01-24T11:58:23.123Z,26.37
2019-01-24T12:03:30.345Z,27.07
2019-01-24T12:05:58.602Z,27.37
2019-01-24T12:08:26.877Z,27.05
2019-01-24T12:10:55.178Z,23.75
2019-01-24T12:13:23.436Z,26.25
2019-01-24T12:15:51.689Z,24.65
2019-01-24T12:18:19.956Z,23.70
2019-01-24T12:20:48.213Z,25.10
2019-01-24T12:23:16.475Z,21.17
2019-01-24T12:25:44.752Z,27.83
2019-01-24T12:28:13.023Z,23.03
2019-01-24T12:30:41.297Z,24.27
2019-01-24T12:33:09.556Z,25.40
2019-01-24T12:35:37.822Z,26.07
2019-01-24T12:38:06.089Z,23.67
2019-01-24T12:40:34.354Z,25.97
2019-01-24T12:43:02.621Z,25.53
2019-01-24T12:46:10.905Z,27.17
2019-01-24T12:48:39.176Z,24.87
2019-01-24T12:51:07.455Z,23.98
2019-01-24T12:53:35.729Z,25.05
2019-01-24T12:56:03.992Z,24.17
2019-01-24T12:58:32.254Z,23.97
2019-01-24T13:01:00.531Z,24.90
2019-01-24T13:03:28.800Z,23.80
2019-01-24T13:05:57.100Z,25.53
2019-01-24T13:08:25.363Z,25.27
2019-01-24T13:10:53.646Z,24.43
2019-01-24T13:13:21.925Z,23.03
2019-01-24T13:15:50.199Z,22.30
2019-01-24T13:18:18.477Z,25.13
2019-01-24T13:20:46.736Z,24.77
2019-01-24T13:23:15.027Z,25.32
2019-01-24T13:28:51.352Z,30.03
2019-01-24T13:31:19.638Z,24.27
2019-01-24T13:33:47.922Z,25.82
2019-01-24T13:36:16.181Z,25.65
2019-01-24T13:38:44.448Z,25.90
2019-01-24T13:41:12.716Z,26.40
2019-01-24T13:43:41.563Z,26.45
2019-01-24T13:46:09.831Z,26.30
2019-01-24T13:48:38.115Z,26.70
2019-01-24T13:51:06.378Z,24.90
2019-01-24T13:53:34.662Z,24.40
2019-01-24T13:56:02.929Z,28.30
2019-01-24T13:58:31.189Z,23.77
2019-01-24T14:00:59.464Z,25.80
2019-01-24T14:03:27.886Z,26.27
2019-01-24T14:05:56.162Z,23.33
2019-01-24T14:08:24.432Z,25.50
2019-01-24T14:10:52.698Z,25.17
2019-01-24T14:13:20.992Z,26.62
2019-01-24T14:15:49.251Z,25.15
2019-01-24T14:18:17.511Z,26.55
2019-01-24T14:20:45.771Z,22.90
2019-01-24T14:23:14.039Z,25.73
2019-01-24T14:25:42.304Z,24.67
2019-01-24T14:28:10.568Z,26.90
2019-01-24T14:30:38.833Z,25.00
2019-01-24T14:33:07.093Z,22.75
2019-01-24T14:35:35.358Z,25.15
2019-01-24T14:38:03.702Z,24.43
2019-01-24T14:40:31.966Z,24.97
2019-01-24T14:43:00.231Z,22.73
2019-01-24T14:45:28.567Z,25.65
2019-01-24T14:47:56.839Z,26.00
2019-01-24T14:51:05.151Z,26.97
2019-01-24T14:53:33.419Z,24.02
2019-01-24T14:56:01.688Z,25.60
2019-01-24T14:58:29.951Z,22.80
2019-01-24T15:01:38.259Z,23.03
2019-01-24T15:04:06.518Z,20.93
2019-01-24T15:06:34.792Z,23.40
2019-01-24T15:11:42.018Z,23.53
2019-01-24T15:14:10.279Z,24.23
2019-01-24T15:16:38.574Z,24.57
2019-01-24T15:19:06.837Z,22.57
2019-01-24T15:21:35.987Z,22.50
2019-01-24T15:24:05.164Z,23.07
2019-01-24T15:26:52.771Z,23.47
2019-01-24T15:29:21.037Z,23.87
2019-01-24T15:31:49.317Z,22.07
2019-01-24T15:34:17.583Z,22.58
2019-01-24T15:36:45.840Z,22.97
2019-01-24T15:39:14.106Z,22.30
2019-01-24T15:41:42.366Z,20.63
2019-01-24T15:44:10.634Z,22.55
2019-01-24T15:46:38.903Z,21.17
2019-01-24T15:49:07.187Z,22.75
2019-01-24T15:51:35.430Z,22.43
2019-01-24T15:57:05.259Z,20.60
2019-01-24T15:59:33.530Z,20.97
2019-01-24T16:02:01.796Z,24.25
2019-01-24T16:04:30.071Z,23.23
2019-01-24T16:06:58.341Z,20.95
2019-01-24T16:09:26.611Z,23.50
2019-01-24T16:11:54.884Z,21.53
2019-01-24T16:14:23.150Z,23.45
2019-01-24T16:16:51.420Z,23.00
2019-01-24T16:19:19.705Z,22.00
2019-01-24T16:21:47.956Z,22.95
2019-01-24T16:24:16.249Z,22.57
2019-01-24T16:26:44.518Z,21.00
2019-01-24T16:29:12.780Z,22.47
2019-01-24T16:31:41.043Z,22.50
2019-01-24T16:34:09.298Z,21.60
2019-01-24T16:36:37.562Z,20.60
2019-01-24T16:39:39.183Z,21.83
2019-01-24T16:42:07.443Z,20.40
2019-01-24T16:44:35.705Z,20.77
2019-01-24T16:47:04.037Z,23.87
2019-01-24T16:49:32.294Z,21.90
2019-01-24T16:52:00.575Z,19.20
2019-01-24T16:54:28.853Z,17.60
2019-01-24T16:56:57.156Z,22.48
2019-01-24T16:59:25.428Z,21.57
2019-01-24T17:01:53.681Z,19.50
2019-01-24T17:04:21.946Z,21.10
2019-01-24T17:06:50.216Z,22.40
2019-01-24T17:09:18.473Z,20.37
2019-01-24T17:11:46.748Z,20.70
2019-01-24T17:14:15.005Z,21.40
2019-01-24T17:16:43.276Z,21.90
2019-01-24T17:19:11.549Z,21.93
2019-01-24T17:21:39.813Z,21.23
2019-01-24T17:24:08.086Z,21.23
2019-01-24T17:26:36.363Z,20.88
2019-01-24T17:29:44.670Z,21.57
2019-01-24T17:32:12.955Z,21.77
2019-01-24T17:34:41.211Z,18.37
2019-01-24T17:37:09.478Z,18.83
2019-01-24T17:39:37.734Z,19.92
2019-01-24T17:42:06.036Z,20.72
2019-01-24T17:44:34.299Z,20.80
2019-01-24T17:47:02.555Z,21.20
2019-01-24T17:49:30.852Z,22.85
2019-01-24T17:51:59.136Z,24.20
2019-01-24T17:54:27.414Z,22.40
2019-01-24T17:56:55.697Z,21.40
2019-01-24T17:59:23.979Z,21.52
2019-01-24T18:01:52.272Z,23.53
2019-01-24T18:04:21.779Z,20.90
2019-01-24T18:06:50.559Z,20.20
2019-01-24T18:09:18.818Z,22.90
2019-01-24T18:11:48.236Z,22.17
2019-01-24T18:14:17.105Z,22.03
2019-01-24T18:16:45.391Z,24.20
2019-01-24T18:19:13.658Z,21.80
2019-01-24T18:21:41.930Z,20.48
2019-01-24T18:24:10.198Z,22.03
2019-01-24T18:26:38.482Z,21.20
2019-01-24T18:29:06.820Z,19.03
2019-01-24T18:31:35.102Z,21.20
2019-01-24T18:34:03.380Z,21.83
2019-01-24T18:36:31.650Z,19.60
2019-01-24T18:38:59.922Z,18.53
2019-01-24T18:41:28.180Z,19.20
2019-01-24T18:43:56.466Z,18.63
2019-01-24T18:46:43.842Z,19.63
2019-01-24T18:49:12.136Z,19.45
2019-01-24T18:51:40.403Z,19.20
2019-01-24T18:54:08.999Z,18.93
2019-01-24T18:56:37.355Z,17.53
2019-01-24T18:59:05.619Z,17.80
2019-01-24T19:01:33.886Z,17.90
2019-01-24T19:04:02.169Z,20.30
2019-01-24T19:06:30.441Z,22.90
2019-01-24T19:08:58.710Z,20.40
2019-01-24T19:11:26.977Z,18.67
2019-01-24T19:13:55.249Z,20.73
2019-01-24T19:16:23.529Z,19.75
2019-01-24T19:18:51.790Z,18.28
2019-01-24T19:21:20.065Z,20.82
2019-01-24T19:23:48.343Z,22.16
2019-01-24T19:26:16.679Z,19.80
2019-01-24T19:28:44.922Z,21.02
2019-01-24T19:31:32.568Z,17.60
2019-01-24T19:34:00.870Z,17.90
2019-01-24T19:36:29.152Z,19.13
2019-01-24T19:38:57.454Z,17.97
2019-01-24T19:41:45.108Z,18.47
2019-01-24T19:44:16.072Z,19.40
2019-01-24T19:46:44.308Z,18.63
2019-01-24T19:52:13.982Z,16.53
2019-01-24T19:54:42.280Z,17.40
2019-01-24T19:57:10.520Z,17.80
2019-01-24T19:59:39.625Z,19.67
2019-01-24T20:02:07.894Z,20.67
2019-01-24T20:04:38.249Z,18.48
2019-01-24T20:07:06.530Z,17.97
2019-01-24T20:09:34.896Z,18.45
2019-01-24T20:12:03.329Z,20.15
2019-01-24T20:14:31.597Z,17.20
2019-01-24T20:16:59.882Z,19.60
2019-01-24T20:19:47.270Z,20.60
2019-01-24T20:22:36.197Z,21.50
2019-01-24T20:25:39.433Z,19.73
2019-01-24T20:28:07.723Z,17.63
2019-01-24T20:31:17.040Z,17.70
2019-01-24T20:33:45.664Z,16.92
2019-01-24T20:36:13.943Z,18.75
2019-01-24T20:38:42.197Z,19.98
2019-01-24T20:41:10.495Z,18.75
2019-01-24T20:43:38.973Z,17.12
2019-01-24T20:46:07.264Z,18.12
2019-01-24T20:48:35.536Z,18.40
2019-01-24T20:51:03.808Z,18.70
2019-01-24T20:53:32.109Z,19.23
2019-01-24T20:56:00.398Z,18.63
2019-01-24T20:58:28.689Z,18.32
2019-01-24T21:00:56.973Z,16.47
2019-01-24T21:03:25.250Z,19.23
2019-01-24T21:05:53.533Z,20.67
2019-01-24T21:08:23.904Z,18.33
2019-01-24T21:10:52.185Z,19.30
2019-01-24T21:13:20.462Z,18.07
2019-01-24T21:15:48.734Z,18.07
2019-01-24T21:18:17.025Z,19.80
2019-01-24T21:20:45.288Z,20.20
2019-01-24T21:23:13.566Z,20.40
2019-01-24T21:25:41.834Z,18.80
2019-01-24T21:28:10.176Z,17.48
2019-01-24T21:30:38.437Z,17.73
2019-01-24T21:33:46.761Z,20.07
2019-01-24T21:36:15.025Z,18.07
2019-01-24T21:38:43.302Z,19.55
2019-01-24T21:41:11.568Z,19.27
2019-01-24T21:43:40.302Z,18.63
2019-01-24T21:46:08.564Z,19.70
2019-01-24T21:48:36.833Z,16.23
2019-01-24T21:51:11.152Z,18.62
2019-01-24T21:53:35.200Z,18.62
2019-01-24T21:56:03.474Z,17.00
2019-01-24T21:58:31.757Z,18.85
2019-01-24T22:01:00.018Z,21.00
2019-01-24T22:03:28.307Z,17.15
2019-01-24T22:05:56.571Z,19.97
2019-01-24T22:08:25.299Z,17.90
2019-01-24T22:10:54.870Z,19.50
2019-01-24T22:13:23.143Z,18.87
2019-01-24T22:15:51.423Z,18.48
2019-01-24T22:18:19.704Z,19.70
2019-01-24T22:20:47.992Z,19.10
2019-01-24T22:23:16.255Z,19.07
2019-01-24T22:25:44.543Z,18.03
2019-01-24T22:28:12.852Z,16.93
2019-01-24T22:31:15.085Z,20.48
2019-01-24T22:33:43.375Z,16.70
2019-01-24T22:36:11.647Z,16.95
2019-01-24T22:38:39.939Z,15.30
2019-01-24T22:41:08.196Z,17.73
2019-01-24T22:43:36.492Z,19.27
2019-01-24T22:49:12.841Z,18.15
2019-01-24T22:51:41.148Z,18.95
2019-01-24T22:54:09.428Z,18.20
2019-01-24T22:56:37.711Z,17.67
2019-01-24T22:59:05.977Z,19.73
2019-01-24T23:02:14.305Z,18.10
2019-01-24T23:04:42.570Z,16.50
2019-01-24T23:07:10.845Z,19.62
2019-01-24T23:09:44.080Z,19.37
2019-01-24T23:12:09.132Z,17.97
2019-01-24T23:14:37.413Z,17.15
2019-01-24T23:17:05.706Z,17.97
2019-01-24T23:19:33.989Z,17.77
2019-01-24T23:22:02.253Z,16.67
2019-01-24T23:24:30.562Z,17.40
2019-01-24T23:26:58.827Z,17.43
2019-01-24T23:29:27.109Z,18.50
2019-01-24T23:31:55.363Z,18.00
2019-01-24T23:34:23.663Z,17.80
2019-01-24T23:36:51.941Z,19.20
2019-01-24T23:39:20.202Z,17.42
2019-01-24T23:41:48.472Z,19.02
2019-01-24T23:44:16.759Z,16.90
2019-01-24T23:46:45.029Z,20.47
2019-01-24T23:49:13.283Z,17.63
2019-01-24T23:51:41.646Z,16.33
2019-01-24T23:54:09.920Z,17.37
2019-01-24T23:56:38.214Z,19.35
2019-01-24T23:59:06.477Z,18.10
